Time;durP1;ratioP1;P1;durP2;ratioP2;P2;SDS_P1;SDS_P2;PMS_P1;PMS_P2;Temp;Humidity;BMP_temperature;BMP_pressure;BME280_temperature;BME280_humidity;BME280_pressure;Samples;Min_cycle;Max_cycle;Signal;HPM_P1;HPM_P2
2022/07/21 00:01:18;;;;;;;1.23;0.70;;;;;;;14.48;100.00;99345.00;5091303;28;20047;-52
2022/07/21 00:03:44;;;;;;;0.60;0.60;;;;;;;14.44;100.00;99343.41;5090952;28;20073;-51
2022/07/21 00:06:10;;;;;;;5.40;0.90;;;;;;;14.55;100.00;99347.03;5091074;28;20070;-51
2022/07/21 00:08:37;;;;;;;1.13;0.93;;;;;;;14.36;100.00;99362.69;5090623;28;20460;-53
2022/07/21 00:11:04;;;;;;;3.85;1.17;;;;;;;14.33;100.00;99388.25;5090472;28;20369;-53
2022/07/21 00:13:30;;;;;;;1.05;0.70;;;;;;;14.49;100.00;99374.16;5090789;28;20048;-54
2022/07/21 00:15:57;;;;;;;3.13;0.68;;;;;;;14.22;100.00;99408.66;5090177;28;20499;-55
2022/07/21 00:18:24;;;;;;;2.10;0.80;;;;;;;14.36;100.00;99409.56;5090787;28;20479;-53
2022/07/21 00:20:51;;;;;;;3.80;0.90;;;;;;;14.23;100.00;99402.78;5090529;28;20056;-54
2022/07/21 00:23:17;;;;;;;1.33;0.70;;;;;;;14.29;100.00;99439.81;5090619;28;20050;-51
2022/07/21 00:25:43;;;;;;;0.90;0.82;;;;;;;14.16;100.00;99438.56;5090304;28;20404;-55
2022/07/21 00:28:10;;;;;;;1.92;1.10;;;;;;;14.26;100.00;99437.03;5090527;28;20059;-54
2022/07/21 00:30:36;;;;;;;1.58;0.80;;;;;;;14.39;100.00;99427.28;5090300;28;20048;-54
2022/07/21 00:33:03;;;;;;;1.58;0.60;;;;;;;14.24;100.00;99433.91;5090559;28;20054;-54
2022/07/21 00:35:29;;;;;;;1.70;1.00;;;;;;;14.28;100.00;99446.53;5090140;28;20063;-55
2022/07/21 00:37:56;;;;;;;1.63;0.70;;;;;;;14.11;100.00;99474.75;5090317;28;20553;-54
2022/07/21 00:40:22;;;;;;;7.32;0.93;;;;;;;14.16;100.00;99482.69;5090068;28;20048;-53
2022/07/21 00:42:48;;;;;;;8.90;0.90;;;;;;;14.20;100.00;99504.78;5090072;28;20055;-54
2022/07/21 00:45:15;;;;;;;3.75;1.10;;;;;;;14.08;100.00;99514.91;5090218;28;20059;-55
2022/07/21 00:47:42;;;;;;;2.47;0.90;;;;;;;13.99;100.00;99536.47;5090069;28;20056;-55
2022/07/21 00:50:10;;;;;;;4.10;0.88;;;;;;;13.96;100.00;99520.72;5090039;28;20043;-55
2022/07/21 00:52:37;;;;;;;7.50;0.90;;;;;;;14.16;100.00;99514.97;5089864;28;20048;-51
2022/07/21 00:55:04;;;;;;;6.93;0.90;;;;;;;14.11;100.00;99502.31;5090259;28;20056;-56
2022/07/21 00:57:31;;;;;;;1.55;0.80;;;;;;;14.01;100.00;99512.06;5089974;28;20052;-53
2022/07/21 00:59:57;;;;;;;1.42;0.80;;;;;;;14.06;100.00;99524.72;5090092;28;20048;-52
2022/07/21 01:02:26;;;;;;;5.75;1.00;;;;;;;14.17;100.00;99519.31;5089833;28;20461;-54
2022/07/21 01:04:52;;;;;;;5.60;1.63;;;;;;;14.18;100.00;99507.09;5089783;28;20048;-56
2022/07/21 01:07:20;;;;;;;2.28;0.90;;;;;;;13.86;100.00;99518.59;5089658;28;20414;-53
2022/07/21 01:09:46;;;;;;;3.88;1.10;;;;;;;14.02;100.00;99538.47;5089997;28;20112;-53
2022/07/21 01:12:12;;;;;;;3.15;0.98;;;;;;;14.02;100.00;99537.66;5089804;28;20056;-53
2022/07/21 01:14:39;;;;;;;2.72;1.00;;;;;;;14.03;100.00;99537.31;5089610;28;20507;-52
2022/07/21 01:17:05;;;;;;;5.47;1.05;;;;;;;13.85;100.00;99541.84;5089913;28;20059;-53
2022/07/21 01:19:32;;;;;;;2.33;0.98;;;;;;;13.95;100.00;99563.19;5089657;28;20044;-55
2022/07/21 01:21:59;;;;;;;2.35;0.93;;;;;;;13.96;100.00;99548.28;5089823;28;20048;-54
2022/07/21 01:24:25;;;;;;;1.58;0.95;;;;;;;14.01;100.00;99549.88;5089592;28;20061;-54
2022/07/21 01:26:53;;;;;;;2.33;1.08;;;;;;;13.91;100.00;99553.31;5089770;28;20058;-51
2022/07/21 01:29:20;;;;;;;1.10;0.80;;;;;;;13.76;100.00;99572.47;5092784;28;20059;-55
2022/07/21 01:31:48;;;;;;;4.40;0.90;;;;;;;13.73;100.00;99594.44;5093304;28;20074;-52
2022/07/21 01:34:14;;;;;;;0.82;0.80;;;;;;;13.81;100.00;99587.84;5093045;28;20052;-52
2022/07/21 01:36:41;;;;;;;0.93;0.90;;;;;;;13.75;100.00;99578.34;5093509;28;20101;-53
2022/07/21 01:41:52;;;;;;;2.85;1.00;;;;;;;13.78;100.00;99613.41;5093095;28;20047;-51
2022/07/21 01:44:18;;;;;;;2.58;0.93;;;;;;;13.69;100.00;99602.66;5093100;28;20044;-52
2022/07/21 01:46:52;;;;;;;3.67;1.00;;;;;;;13.59;100.00;99617.88;5092829;28;20051;-56
2022/07/21 01:49:20;;;;;;;2.63;1.10;;;;;;;13.69;100.00;99626.66;5093214;28;20607;-54
2022/07/21 01:51:46;;;;;;;3.20;0.85;;;;;;;13.67;100.00;99629.03;5092874;28;20290;-53
2022/07/21 01:54:13;;;;;;;9.68;0.90;;;;;;;13.51;100.00;99645.72;5092974;28;20426;-53
2022/07/21 01:56:40;;;;;;;1.05;0.95;;;;;;;13.32;100.00;99671.41;5092702;28;20044;-53
2022/07/21 01:59:07;;;;;;;4.53;1.00;;;;;;;13.45;100.00;99667.28;5092717;28;20059;-51
2022/07/21 02:01:34;;;;;;;2.60;0.80;;;;;;;13.47;100.00;99664.97;5092555;28;20048;-52
2022/07/21 02:04:02;;;;;;;5.60;1.20;;;;;;;13.38;100.00;99670.72;5092673;28;20052;-52
2022/07/21 02:06:29;;;;;;;2.40;1.00;;;;;;;13.35;100.00;99679.72;5092932;28;20048;-53
2022/07/21 02:08:56;;;;;;;1.42;0.90;;;;;;;13.42;100.00;99671.56;5092726;28;20059;-56
2022/07/21 02:11:23;;;;;;;1.00;0.85;;;;;;;13.44;100.00;99673.19;5092646;28;20048;-55
2022/07/21 02:13:49;;;;;;;1.35;0.93;;;;;;;13.42;100.00;99668.03;5092699;28;20070;-55
2022/07/21 02:16:16;;;;;;;3.33;1.17;;;;;;;13.47;100.00;99661.41;5092764;28;20055;-53
2022/07/21 02:18:42;;;;;;;1.02;0.93;;;;;;;13.54;100.00;99667.03;5092275;28;20092;-52
2022/07/21 02:21:08;;;;;;;1.25;1.00;;;;;;;13.50;100.00;99668.94;5092644;28;20430;-53
2022/07/21 02:23:35;;;;;;;2.45;1.30;;;;;;;13.39;100.00;99683.34;5092321;28;20418;-52
2022/07/21 02:26:02;;;;;;;6.68;1.00;;;;;;;13.41;100.00;99675.50;5092332;28;20047;-54
2022/07/21 02:28:29;;;;;;;5.88;1.38;;;;;;;13.53;100.00;99671.75;5092070;28;20507;-54
2022/07/21 02:30:56;;;;;;;2.05;1.08;;;;;;;13.42;100.00;99671.56;5092412;28;20048;-55
2022/07/21 02:33:22;;;;;;;1.08;1.00;;;;;;;13.45;100.00;99670.03;5092445;28;20183;-52
2022/07/21 02:35:49;;;;;;;1.10;1.00;;;;;;;13.48;100.00;99676.78;5092075;28;20051;-52
2022/07/21 02:38:15;;;;;;;4.07;1.10;;;;;;;13.53;100.00;99673.69;5092034;28;20044;-53
2022/07/21 02:40:42;;;;;;;0.90;0.90;;;;;;;13.67;100.00;99673.91;5092194;28;20472;-55
2022/07/21 02:43:08;;;;;;;2.50;1.20;;;;;;;13.60;100.00;99671.84;5092499;28;20474;-52
2022/07/21 02:45:36;;;;;;;4.13;1.30;;;;;;;14.18;100.00;99662.31;5091795;28;20139;-53
2022/07/21 02:48:05;;;;;;;4.43;1.05;;;;;;;14.78;100.00;99631.78;5092265;28;20048;-54
2022/07/21 02:50:34;;;;;;;2.83;1.10;;;;;;;15.07;100.00;99541.69;5091855;28;20063;-54
2022/07/21 02:53:03;;;;;;;6.40;1.38;;;;;;;15.39;100.00;99474.72;5092017;28;20143;-55
2022/07/21 02:55:30;;;;;;;4.28;1.08;;;;;;;15.72;100.00;99316.13;5091835;28;20052;-54
2022/07/21 02:58:07;;;;;;;4.90;1.25;;;;;;;15.74;100.00;99181.09;5091847;28;20059;-54
2022/07/21 03:00:35;;;;;;;1.08;0.82;;;;;;;16.16;100.00;99173.84;5091940;28;20056;-53
2022/07/21 03:03:01;;;;;;;4.60;1.08;;;;;;;16.18;100.00;98983.38;5091660;28;20048;-53
2022/07/21 03:05:28;;;;;;;1.92;1.00;;;;;;;16.70;100.00;98939.03;5091985;28;20052;-52
2022/07/21 03:07:54;;;;;;;1.30;0.80;;;;;;;17.17;100.00;98802.81;5091674;28;20178;-56
2022/07/21 03:10:20;;;;;;;2.30;1.05;;;;;;;17.19;100.00;98700.66;5091838;28;20054;-54
2022/07/21 03:12:46;;;;;;;3.25;1.33;;;;;;;17.42;100.00;98619.53;5091491;28;20052;-54
2022/07/21 03:15:13;;;;;;;4.68;1.35;;;;;;;17.49;100.00;98593.69;5091871;28;20059;-52
2022/07/21 03:17:39;;;;;;;2.15;1.10;;;;;;;17.48;100.00;98584.59;5091920;28;20114;-56
2022/07/21 03:20:07;;;;;;;3.75;1.20;;;;;;;17.84;100.00;98500.75;5091888;28;20586;-55
2022/07/21 03:22:33;;;;;;;3.08;1.10;;;;;;;17.60;100.00;98536.06;5091647;28;20044;-56
2022/07/21 03:24:59;;;;;;;1.98;1.13;;;;;;;18.15;100.00;98467.91;5091801;28;20060;-54
2022/07/21 03:27:25;;;;;;;2.50;1.15;;;;;;;18.81;100.00;98327.84;5091583;28;20052;-54
2022/07/21 03:29:52;;;;;;;2.85;1.10;;;;;;;18.88;100.00;98299.09;5091363;28;20052;-52
2022/07/21 03:32:18;;;;;;;3.40;1.40;;;;;;;18.97;100.00;98290.88;5091647;28;20465;-54
2022/07/21 03:34:45;;;;;;;2.05;1.00;;;;;;;19.38;100.00;98255.09;5091189;28;20052;-55
2022/07/21 03:37:11;;;;;;;1.80;1.08;;;;;;;19.68;100.00;98223.16;5091549;28;20052;-53
2022/07/21 03:39:38;;;;;;;5.03;1.50;;;;;;;19.97;100.00;98201.47;5091247;28;20052;-55
2022/07/21 03:42:04;;;;;;;3.45;1.20;;;;;;;20.02;100.00;98191.00;5091352;28;20161;-55
2022/07/21 03:44:30;;;;;;;5.38;1.75;;;;;;;20.35;100.00;98180.25;5091028;28;20043;-55
2022/07/21 03:46:58;;;;;;;4.40;1.30;;;;;;;20.05;100.00;98176.19;5091205;28;20047;-53
2022/07/21 03:49:24;;;;;;;4.18;1.45;;;;;;;20.29;100.00;98182.06;5090946;28;20044;-53
2022/07/21 03:51:51;;;;;;;2.05;1.10;;;;;;;20.19;100.00;98187.59;5089925;28;20048;-52
2022/07/21 03:54:18;;;;;;;2.40;1.05;;;;;;;20.37;100.00;98178.56;5090806;28;20139;-54
2022/07/21 03:56:44;;;;;;;5.85;1.20;;;;;;;20.64;100.00;98182.75;5090898;28;20058;-56
2022/07/21 03:59:10;;;;;;;3.45;1.33;;;;;;;20.95;100.00;98185.50;5090992;28;20048;-53
2022/07/21 04:01:36;;;;;;;2.10;1.20;;;;;;;21.06;100.00;98185.88;5090742;28;20054;-57
2022/07/21 04:04:03;;;;;;;2.42;1.40;;;;;;;21.05;100.00;98187.09;5091083;28;20050;-56
2022/07/21 04:06:29;;;;;;;2.67;1.50;;;;;;;21.08;100.00;98188.19;5090700;28;20047;-54
2022/07/21 04:08:56;;;;;;;1.98;1.20;;;;;;;21.47;100.00;98206.13;5091032;28;20048;-56
2022/07/21 04:11:22;;;;;;;5.55;1.50;;;;;;;21.51;100.00;98198.38;5091003;28;20134;-53
2022/07/21 04:13:48;;;;;;;5.45;1.45;;;;;;;21.23;100.00;98196.75;5090676;28;20109;-52
2022/07/21 04:16:15;;;;;;;5.15;1.42;;;;;;;21.55;100.00;98206.59;5090621;28;20142;-53
2022/07/21 04:18:41;;;;;;;2.47;1.10;;;;;;;20.88;100.00;98194.16;5090525;28;20063;-55
2022/07/21 04:21:07;;;;;;;3.15;1.48;;;;;;;21.82;100.00;98195.47;5090465;28;20502;-54
2022/07/21 04:23:33;;;;;;;2.17;1.42;;;;;;;22.02;100.00;98224.91;5090595;28;20048;-56
2022/07/21 04:26:00;;;;;;;3.38;1.70;;;;;;;22.30;100.00;98214.56;5090697;28;20104;-53
2022/07/21 04:28:27;;;;;;;4.15;1.50;;;;;;;22.05;100.00;98219.19;5090198;28;20044;-55
2022/07/21 04:30:53;;;;;;;3.50;1.52;;;;;;;22.77;100.00;98230.75;5090646;28;20060;-53
2022/07/21 04:33:19;;;;;;;5.82;1.77;;;;;;;22.34;100.00;98234.72;5090292;28;20048;-54
2022/07/21 04:35:45;;;;;;;8.10;1.77;;;;;;;22.66;100.00;98229.69;5090563;28;20404;-55
2022/07/21 04:38:12;;;;;;;3.03;1.55;;;;;;;21.71;100.00;98192.38;5090352;28;20044;-54
2022/07/21 04:40:38;;;;;;;4.07;1.35;;;;;;;21.94;100.00;98188.19;5090359;28;20499;-53
2022/07/21 04:43:06;;;;;;;3.10;1.60;;;;;;;22.69;100.00;98214.78;5090237;28;20060;-53
2022/07/21 04:45:32;;;;;;;6.00;1.80;;;;;;;22.44;100.00;98210.34;5090101;28;20052;-56
2022/07/21 04:47:59;;;;;;;5.55;1.52;;;;;;;22.39;100.00;98203.38;5090080;28;20059;-53
2022/07/21 04:50:27;;;;;;;4.43;1.60;;;;;;;23.08;100.00;98235.31;5090191;28;20078;-56
2022/07/21 04:52:55;;;;;;;3.60;1.55;;;;;;;22.96;100.00;98241.91;5090124;28;20137;-57
2022/07/21 04:55:22;;;;;;;2.72;1.52;;;;;;;23.17;100.00;98254.09;5089837;28;20087;-56
2022/07/21 04:57:50;;;;;;;2.95;1.52;;;;;;;23.36;100.00;98254.75;5090101;28;20092;-55
2022/07/21 05:00:19;;;;;;;2.15;1.73;;;;;;;23.43;100.00;98258.00;5089876;28;20141;-56
2022/07/21 05:02:46;;;;;;;4.57;1.70;;;;;;;23.27;100.00;98282.78;5089816;28;20048;-55
2022/07/21 05:05:13;;;;;;;4.70;1.50;;;;;;;23.26;100.00;98245.66;5089756;28;20052;-56
2022/07/21 05:07:40;;;;;;;2.70;1.70;;;;;;;23.66;100.00;98252.91;5089951;28;20055;-54
2022/07/21 05:10:07;;;;;;;4.50;1.65;;;;;;;23.69;100.00;98291.13;5089858;28;20564;-56
2022/07/21 05:12:33;;;;;;;4.47;1.55;;;;;;;23.48;100.00;98278.94;5089611;28;20048;-57
2022/07/21 05:15:00;;;;;;;6.35;1.48;;;;;;;23.88;100.00;98340.16;5089703;28;20520;-56
2022/07/21 05:17:27;;;;;;;3.72;1.50;;;;;;;24.14;100.00;98306.84;5089548;28;20056;-53
2022/07/21 05:19:53;;;;;;;5.03;1.63;;;;;;;24.50;100.00;98343.50;5089792;28;20388;-54
2022/07/21 05:22:19;;;;;;;4.80;1.52;;;;;;;24.23;100.00;98344.47;5089584;28;20048;-57
2022/07/21 05:24:46;;;;;;;3.45;1.60;;;;;;;24.46;100.00;98331.69;5089653;28;20143;-56
2022/07/21 05:27:12;;;;;;;1.50;1.40;;;;;;;24.63;100.00;98352.44;5089422;28;20048;-53
2022/07/21 05:29:38;;;;;;;3.83;1.52;;;;;;;25.01;100.00;98362.03;5089889;28;20135;-57
2022/07/21 05:32:05;;;;;;;5.85;1.35;;;;;;;25.05;100.00;98404.66;5089476;28;20059;-55
2022/07/21 05:34:32;;;;;;;5.35;1.60;;;;;;;24.46;100.00;98371.72;5089542;28;20059;-55
2022/07/21 05:36:58;;;;;;;1.33;1.20;;;;;;;24.98;100.00;98386.19;5089358;28;20052;-57
2022/07/21 05:39:24;;;;;;;6.07;1.40;;;;;;;25.70;100.00;98416.78;5089625;28;20048;-54
2022/07/21 05:41:50;;;;;;;4.05;1.40;;;;;;;25.98;100.00;98450.94;5089649;28;20945;-55
2022/07/21 05:44:17;;;;;;;5.80;1.52;;;;;;;25.95;100.00;98442.72;5089240;28;20159;-57
2022/07/21 05:46:43;;;;;;;6.43;1.85;;;;;;;25.48;100.00;98447.28;5089319;28;20406;-55
2022/07/21 05:49:09;;;;;;;2.22;1.38;;;;;;;25.89;100.00;98427.81;5089164;28;20056;-55
2022/07/21 05:51:36;;;;;;;3.47;1.25;;;;;;;26.12;100.00;98442.97;5089459;28;20445;-57
2022/07/21 05:54:03;;;;;;;1.73;1.20;;;;;;;26.71;100.00;98466.03;5089016;28;20097;-55
2022/07/21 05:56:29;;;;;;;5.53;1.55;;;;;;;26.66;100.00;98472.38;5089266;28;20054;-54
2022/07/21 05:58:55;;;;;;;7.82;1.58;;;;;;;26.72;100.00;98500.53;5089254;28;20450;-54
2022/07/21 06:01:21;;;;;;;2.65;1.55;;;;;;;26.58;100.00;98485.28;5089407;28;20051;-54
2022/07/21 06:03:49;;;;;;;2.78;1.40;;;;;;;26.68;100.00;98477.50;5089070;28;20053;-55
2022/07/21 06:06:17;;;;;;;3.78;1.60;;;;;;;27.11;100.00;98497.44;5088939;28;20055;-57
2022/07/21 06:08:46;;;;;;;5.38;1.27;;;;;;;27.59;100.00;98519.47;5088888;28;20518;-56
2022/07/21 06:11:14;;;;;;;4.18;1.35;;;;;;;27.22;100.00;98534.16;5088838;28;20044;-54
2022/07/21 06:13:41;;;;;;;2.58;1.40;;;;;;;27.04;100.00;98514.75;5089634;28;20052;-53
2022/07/21 06:16:07;;;;;;;2.22;1.23;;;;;;;27.42;100.00;98519.28;5092353;28;20048;-55
2022/07/21 06:18:34;;;;;;;3.40;1.27;;;;;;;27.62;100.00;98535.34;5092377;28;20603;-56
2022/07/21 06:21:00;;;;;;;2.85;1.33;;;;;;;27.71;100.00;98538.00;5092222;28;20105;-56
2022/07/21 06:23:27;;;;;;;3.90;1.20;;;;;;;27.68;100.00;98545.41;5092506;28;20074;-55
2022/07/21 06:25:54;;;;;;;3.65;1.40;;;;;;;27.82;100.00;98532.50;5092128;28;20138;-54
2022/07/21 06:28:21;;;;;;;3.25;1.30;;;;;;;27.85;100.00;98533.56;5092393;28;20078;-57
2022/07/21 06:30:48;;;;;;;1.77;1.30;;;;;;;27.17;100.00;98507.53;5092149;28;20048;-56
2022/07/21 06:33:14;;;;;;;2.25;1.30;;;;;;;27.77;100.00;98521.22;5092167;28;20044;-56
2022/07/21 06:35:41;;;;;;;3.80;1.40;;;;;;;27.51;100.00;98512.72;5092225;28;20120;-57
2022/07/21 06:38:07;;;;;;;2.13;1.20;;;;;;;28.22;100.00;98558.19;5092126;28;20138;-57
2022/07/21 06:40:33;;;;;;;3.63;1.30;;;;;;;28.22;100.00;98555.38;5092025;28;20100;-57
2022/07/21 06:43:01;;;;;;;3.72;1.25;;;;;;;28.11;100.00;98558.88;5091886;28;20578;-56
2022/07/21 06:45:27;;;;;;;6.05;1.75;;;;;;;28.02;100.00;98559.06;5091999;28;20407;-56
2022/07/21 06:48:01;;;;;;;3.28;1.05;;;;;;;28.54;100.00;98564.63;5091939;28;20054;-55
2022/07/21 06:50:27;;;;;;;2.17;1.30;;;;;;;28.67;100.00;98564.19;5092318;28;20143;-57
2022/07/21 06:52:53;;;;;;;2.88;1.00;;;;;;;28.26;100.00;98578.50;5092238;28;20048;-57
2022/07/21 06:55:19;;;;;;;2.90;1.33;;;;;;;28.60;100.00;98585.94;5092065;28;20407;-57
2022/07/21 06:57:46;;;;;;;5.03;1.20;;;;;;;28.63;100.00;98586.22;5091795;28;20523;-57
2022/07/21 07:00:14;;;;;;;1.67;1.27;;;;;;;28.81;100.00;98600.69;5092008;28;20048;-56
2022/07/21 07:02:40;;;;;;;2.95;1.23;;;;;;;28.82;100.00;98578.88;5091820;28;20056;-57
2022/07/21 07:05:07;;;;;;;2.25;1.30;;;;;;;29.16;100.00;98605.28;5091471;28;20056;-57
2022/07/21 07:07:33;;;;;;;1.83;0.95;;;;;;;29.49;100.00;98621.56;5091496;28;20052;-54
2022/07/21 07:09:59;;;;;;;2.58;1.10;;;;;;;28.91;100.00;98612.53;5091226;28;20047;-57
2022/07/21 07:12:26;;;;;;;4.78;1.42;;;;;;;28.99;100.00;98599.53;5091396;28;20086;-57
2022/07/21 07:14:52;;;;;;;2.05;1.20;;;;;;;28.91;100.00;98608.94;5091188;28;20058;-57
2022/07/21 07:17:20;;;;;;;2.35;1.02;;;;;;;29.07;100.00;98614.72;5091496;28;20052;-57
2022/07/21 07:19:46;;;;;;;5.82;1.45;;;;;;;27.71;100.00;98569.00;5091425;28;20058;-57
2022/07/21 07:22:13;;;;;;;3.85;1.10;;;;;;;28.03;100.00;98569.06;5091467;28;20089;-57
2022/07/21 07:24:39;;;;;;;3.25;1.13;;;;;;;28.61;100.00;98564.91;5090799;28;20456;-57
2022/07/21 07:27:05;;;;;;;3.50;1.83;;;;;;;28.89;100.00;98572.00;5090710;28;20079;-56
2022/07/21 07:29:31;;;;;;;3.13;0.98;;;;;;;29.13;100.00;98578.06;5091175;28;20051;-57
2022/07/21 07:31:58;;;;;;;3.22;1.48;;;;;;;29.35;100.00;98585.06;5091266;28;20134;-56
2022/07/21 07:34:25;;;;;;;1.63;1.25;;;;;;;29.89;100.00;98605.53;5091009;28;20066;-57
2022/07/21 07:36:51;;;;;;;17.25;5.55;;;;;;;29.79;100.00;98612.72;5090948;28;20058;-57
2022/07/21 07:39:18;;;;;;;2.92;1.35;;;;;;;29.54;100.00;98597.44;5090996;28;20083;-56
2022/07/21 07:41:44;;;;;;;4.78;1.80;;;;;;;29.88;100.00;98609.63;5091177;28;20074;-57
2022/07/21 07:44:12;;;;;;;2.72;1.50;;;;;;;30.26;100.00;98632.84;5091138;28;20612;-57
2022/07/21 07:46:38;;;;;;;5.43;1.45;;;;;;;29.71;100.00;98617.31;5090889;28;20054;-56
2022/07/21 07:49:04;;;;;;;5.35;1.20;;;;;;;29.26;100.00;98632.00;5091167;28;20044;-58
2022/07/21 07:51:31;;;;;;;47.15;14.38;;;;;;;29.58;100.00;98620.56;5090828;28;20139;-57
2022/07/21 07:53:57;;;;;;;2.13;1.55;;;;;;;30.11;100.00;98654.88;5090990;28;20047;-56
2022/07/21 07:56:23;;;;;;;42.80;12.07;;;;;;;29.73;100.00;98632.47;5090843;28;20079;-55
2022/07/21 07:58:49;;;;;;;2.40;1.10;;;;;;;29.78;100.00;98625.28;5090776;28;20052;-54
2022/07/21 08:01:16;;;;;;;3.55;1.17;;;;;;;30.63;100.00;98623.31;5090726;28;20051;-58
2022/07/21 08:03:42;;;;;;;2.05;1.63;;;;;;;30.70;100.00;98639.78;5090627;28;20048;-56
2022/07/21 08:06:08;;;;;;;3.63;1.45;;;;;;;30.77;100.00;98653.44;5090608;28;20185;-55
2022/07/21 08:08:35;;;;;;;4.40;1.85;;;;;;;29.93;100.00;98658.97;5090469;28;20121;-58
2022/07/21 08:11:02;;;;;;;19.90;1.95;;;;;;;30.54;100.00;98661.13;5090856;28;20063;-57
2022/07/21 08:13:28;;;;;;;10.00;1.10;;;;;;;29.41;100.00;98623.31;5090553;28;20075;-57
2022/07/21 08:15:55;;;;;;;2.70;1.52;;;;;;;29.69;100.00;98623.47;5090615;28;20427;-57
2022/07/21 08:18:21;;;;;;;4.13;1.00;;;;;;;30.10;100.00;98630.75;5090242;28;20048;-56
2022/07/21 08:20:48;;;;;;;2.30;1.15;;;;;;;30.03;100.00;98634.84;5090836;28;20127;-56
2022/07/21 08:23:15;;;;;;;3.38;1.20;;;;;;;29.45;100.00;98595.63;5090548;28;20511;-55
2022/07/21 08:25:42;;;;;;;4.32;1.30;;;;;;;30.24;100.00;98601.47;5090431;28;20070;-53
2022/07/21 08:28:09;;;;;;;3.88;1.17;;;;;;;29.70;100.00;98599.59;5089917;28;20044;-56
2022/07/21 08:30:35;;;;;;;3.22;1.13;;;;;;;29.30;100.00;98592.25;5089859;28;20048;-57
2022/07/21 08:33:03;;;;;;;3.20;1.00;;;;;;;29.37;100.00;98580.47;5089477;28;20134;-57
2022/07/21 08:35:31;;;;;;;4.82;1.30;;;;;;;29.72;100.00;98562.34;5089713;28;20671;-55
2022/07/21 08:37:59;;;;;;;3.55;1.27;;;;;;;29.97;100.00;98580.38;5089198;28;20052;-57
2022/07/21 08:40:26;;;;;;;4.60;1.20;;;;;;;29.64;100.00;98593.16;5089882;28;20056;-55
2022/07/21 08:42:54;;;;;;;4.45;1.10;;;;;;;29.05;100.00;98583.38;5089828;28;20052;-56
2022/07/21 08:45:22;;;;;;;3.30;1.50;;;;;;;28.47;100.00;98570.72;5089932;28;20531;-57
2022/07/21 08:47:51;;;;;;;1.27;1.10;;;;;;;29.55;100.00;98587.69;5090168;28;20109;-55
2022/07/21 08:50:18;;;;;;;8.65;1.15;;;;;;;30.06;100.00;98587.81;5090026;28;20052;-54
2022/07/21 08:52:44;;;;;;;3.08;1.00;;;;;;;30.06;100.00;98588.59;5090256;28;20058;-56
2022/07/21 08:55:11;;;;;;;2.03;1.20;;;;;;;30.39;100.00;98609.69;5089989;28;20142;-55
2022/07/21 08:57:38;;;;;;;2.40;1.00;;;;;;;30.28;100.00;98601.22;5089774;28;20055;-56
2022/07/21 09:00:08;;;;;;;3.97;1.42;;;;;;;30.05;100.00;98600.41;5089658;28;20093;-56
2022/07/21 09:02:37;;;;;;;3.47;1.83;;;;;;;30.32;100.00;98585.53;5089527;28;20131;-55
2022/07/21 09:05:05;;;;;;;8.60;1.63;;;;;;;30.67;100.00;98581.41;5089739;28;20048;-56
2022/07/21 09:07:48;;;;;;;2.42;1.15;;;;;;;30.53;100.00;98622.81;5089764;28;20113;-56
2022/07/21 09:10:14;;;;;;;4.60;1.27;;;;;;;30.42;100.00;98581.19;5089643;28;20441;-52
2022/07/21 09:12:49;;;;;;;2.50;1.10;;;;;;;30.71;100.00;98581.91;5089214;28;20079;-51
2022/07/21 09:15:19;;;;;;;3.33;1.17;;;;;;;30.84;100.00;98581.38;5089705;28;20055;-53
2022/07/21 09:17:45;;;;;;;1.35;1.10;;;;;;;31.48;100.00;98599.19;5089493;28;20052;-54
2022/07/21 09:20:22;;;;;;;3.50;1.20;;;;;;;30.58;100.00;98578.84;5089736;28;20054;-55
2022/07/21 09:23:02;;;;;;;2.08;1.40;;;;;;;30.92;100.00;98571.06;5089457;28;20089;-55
2022/07/21 09:25:40;;;;;;;3.40;1.40;;;;;;;30.84;100.00;98575.72;5089658;28;20048;-55
2022/07/21 09:28:10;;;;;;;2.50;1.30;;;;;;;31.00;100.00;98580.56;5089466;28;20048;-54
2022/07/21 09:30:49;;;;;;;2.08;1.10;;;;;;;30.85;100.00;98597.06;5089527;28;20063;-55
2022/07/21 09:33:20;;;;;;;2.35;1.30;;;;;;;31.31;100.00;98579.41;5089743;28;20516;-51
2022/07/21 09:35:53;;;;;;;4.55;1.48;;;;;;;30.60;100.00;98568.53;5089457;28;20059;-53
2022/07/21 09:38:19;;;;;;;3.25;1.30;;;;;;;30.79;100.00;98582.94;5089721;28;20048;-55
2022/07/21 09:40:47;;;;;;;3.15;1.45;;;;;;;30.37;100.00;98576.28;5089581;28;21449;-52
2022/07/21 09:43:31;;;;;;;2.08;1.65;;;;;;;31.07;100.00;98580.03;5089349;28;20088;-55
2022/07/21 09:46:03;;;;;;;7.35;1.50;;;;;;;31.88;100.00;98579.91;5089233;28;20138;-53
2022/07/21 09:48:35;;;;;;;2.60;1.43;;;;;;;31.43;100.00;98587.91;5089773;28;20048;-56
2022/07/21 09:51:28;;;;;;;2.85;1.35;;;;;;;30.83;100.00;98599.66;5092987;28;20052;-53
2022/07/21 09:53:57;;;;;;;1.88;1.27;;;;;;;31.31;100.00;98590.75;5092749;28;20097;-54
2022/07/21 09:56:25;;;;;;;2.00;1.50;;;;;;;31.47;100.00;98560.06;5092585;28;20056;-54
2022/07/21 09:58:53;;;;;;;3.13;1.58;;;;;;;31.06;100.00;98587.00;5092666;28;20101;-54
2022/07/21 10:01:21;;;;;;;2.72;1.35;;;;;;;29.89;100.00;98553.88;5092749;28;20052;-52
2022/07/21 10:03:48;;;;;;;3.05;1.58;;;;;;;29.52;100.00;98543.53;5092673;28;20044;-53
2022/07/21 10:06:17;;;;;;;2.55;1.38;;;;;;;30.70;100.00;98549.25;5092595;28;20173;-51
2022/07/21 10:08:44;;;;;;;3.53;1.60;;;;;;;30.54;100.00;98541.56;5092489;28;20052;-53
2022/07/21 10:11:11;;;;;;;3.92;1.63;;;;;;;30.64;100.00;98551.31;5092454;28;20131;-54
2022/07/21 10:13:38;;;;;;;1.30;1.20;;;;;;;30.99;100.00;98549.94;5092638;28;20105;-52
2022/07/21 10:16:05;;;;;;;2.80;1.23;;;;;;;31.23;100.00;98577.66;5092344;28;20507;-55
2022/07/21 10:18:36;;;;;;;1.40;1.30;;;;;;;30.93;100.00;98586.78;5092251;28;20097;-54
2022/07/21 10:21:10;;;;;;;5.53;1.73;;;;;;;29.94;100.00;98545.41;5092238;28;20059;-55
2022/07/21 10:23:41;;;;;;;7.32;1.67;;;;;;;29.93;100.00;98523.34;5092359;28;20051;-51
2022/07/21 10:26:09;;;;;;;2.60;1.30;;;;;;;29.23;100.00;98496.75;5092219;28;20545;-55
2022/07/21 10:28:36;;;;;;;6.43;1.35;;;;;;;29.66;100.00;98514.34;5092440;28;20052;-51
2022/07/21 10:31:15;;;;;;;1.95;1.10;;;;;;;29.41;100.00;98532.22;5092403;28;20052;-52
2022/07/21 10:33:59;;;;;;;5.35;1.30;;;;;;;29.11;100.00;98490.28;5092082;28;20504;-52
2022/07/21 10:36:42;;;;;;;2.03;1.45;;;;;;;28.35;100.00;98462.72;5092399;28;20052;-54
2022/07/21 10:39:20;;;;;;;2.40;1.10;;;;;;;28.51;100.00;98456.44;5092133;28;20567;-53
2022/07/21 10:41:47;;;;;;;3.38;1.17;;;;;;;28.89;100.00;98468.41;5092126;28;20147;-54
2022/07/21 10:44:44;;;;;;;6.00;1.40;;;;;;;28.53;100.00;98489.78;5092177;28;20059;-55
2022/07/21 10:47:12;;;;;;;2.75;1.23;;;;;;;28.31;100.00;98476.28;5088765;28;20052;-54
2022/07/21 10:49:46;;;;;;;4.10;1.00;;;;;;;28.29;100.00;98473.97;5092115;28;20052;-55
2022/07/21 10:52:30;;;;;;;;;;;;;;;27.85;100.00;98443.44;5092369;28;20536;-54
2022/07/21 10:55:16;;;;;;;;;;;;;;;27.94;100.00;98445.28;5092263;28;19932;-52
2022/07/21 10:57:44;;;;;;;2.97;1.20;;;;;;;28.23;100.00;98461.13;5091954;28;19928;-54
2022/07/21 11:00:29;;;;;;;3.00;1.20;;;;;;;28.46;100.00;98465.66;5091362;28;20060;-54
2022/07/21 11:02:58;;;;;;;4.30;1.35;;;;;;;28.32;100.00;98472.19;5091995;28;20048;-54
2022/07/21 11:05:26;;;;;;;2.80;1.35;;;;;;;28.38;100.00;98454.03;5091670;28;20051;-55
2022/07/21 11:08:12;;;;;;;2.63;1.27;;;;;;;28.52;100.00;98457.19;5091903;28;20530;-52
2022/07/21 11:10:40;;;;;;;4.30;1.27;;;;;;;28.47;100.00;98449.50;5091474;28;20070;-54
2022/07/21 11:13:06;;;;;;;1.10;1.00;;;;;;;28.42;100.00;98459.44;5091635;28;20143;-54
2022/07/21 11:16:00;;;;;;;5.57;2.03;;;;;;;28.16;100.00;98431.38;5091472;28;20052;-51
2022/07/21 11:18:29;;;;;;;2.25;1.40;;;;;;;28.07;100.00;98446.41;5067042;28;20052;-52
2022/07/21 11:21:06;;;;;;;1.00;1.00;;;;;;;27.84;100.00;98431.41;5091392;28;20044;-55
2022/07/21 11:23:37;;;;;;;1.65;1.20;;;;;;;27.70;100.00;98423.84;5091449;28;20108;-51
2022/07/21 11:26:03;;;;;;;3.25;1.30;;;;;;;27.29;100.00;98411.94;5091647;28;20052;-54
2022/07/21 11:28:30;;;;;;;2.50;1.17;;;;;;;27.33;100.00;98373.91;5091132;28;20058;-53
2022/07/21 11:31:07;;;;;;;3.25;1.42;;;;;;;27.48;100.00;98367.34;5091270;28;20052;-53